PILOTS ONLINE: 405    ATC ONLINE: 58

CYVR - Vancouver International Airport

Location

IATA YVR
City Vancouver
Country  Canada
Latitude 49° 11' 38" N
Longitude 123° 11' 2" W
Elevation 14 ft
Type Large Airport

Runways

08L/26R 9940 ft / 200 ft
08R/26L 11500 ft / 200 ft
12/30 7300 ft / 200 ft
XX/26A 3500 ft / 75 ft

Weather

METAR
2014/07/29 22:00
CYVR 292200Z 24006KT 210V280 30SM SKC 24/16 A3010 RMK TR CU / TR CI SLP191 DENSITY ALT 900FT
TAF
2014/07/29 21:42
TAF CYVR 292039Z 2921/3024 23008KT P6SM SKC 
      BECMG 3001/3003 VRB03KT 
     FM300500 09005KT P6SM SKC 
      BECMG 3016/3018 24008KT 
      RMK NXT FCST BY 300000Z

Outbound flights

ACA34  CYYZ - Toronto, Canada
DENIS KONDRATENKO
ACA204  CYYC - Calgary, Canada
William Anderson

Inbound flights

ACA183  CYUL - Montréal, Canada
Dominik Bauer
DBX021  LROP - Bucharest, Romania
bogdan rizea
SWR86  LSZH - Zurich, Switzerland
Thijs Spaargaren
ACA229  CYYC - Calgary, Canada
JOHN MANLEY